sensor_id;sensor_type;location;lat;lon;timestamp;P1;durP1;ratioP1;P2;durP2;ratioP2
75379;SDS011;65641;44.714;37.756;2023-02-04T00:00:05;1.75;;;0.90;;
75379;SDS011;65641;44.714;37.756;2023-02-04T00:01:13;1.20;;;1.05;;
75379;SDS011;65641;44.714;37.756;2023-02-04T00:02:16;1.92;;;1.83;;
75379;SDS011;65641;44.714;37.756;2023-02-04T00:03:18;1.92;;;1.77;;
75379;SDS011;65641;44.714;37.756;2023-02-04T00:04:21;1.20;;;0.73;;
75379;SDS011;65641;44.714;37.756;2023-02-04T00:05:24;1.33;;;1.23;;
75379;SDS011;65641;44.714;37.756;2023-02-04T00:06:27;1.80;;;1.70;;
75379;SDS011;65641;44.714;37.756;2023-02-04T00:07:30;2.30;;;1.73;;
75379;SDS011;65641;44.714;37.756;2023-02-04T00:08:33;2.00;;;1.73;;
75379;SDS011;65641;44.714;37.756;2023-02-04T00:09:35;1.30;;;0.70;;
75379;SDS011;65641;44.714;37.756;2023-02-04T00:10:38;1.52;;;1.35;;
75379;SDS011;65641;44.714;37.756;2023-02-04T00:11:41;1.38;;;0.63;;
75379;SDS011;65641;44.714;37.756;2023-02-04T00:12:46;2.05;;;1.85;;
75379;SDS011;65641;44.714;37.756;2023-02-04T00:13:49;2.45;;;1.48;;
75379;SDS011;65641;44.714;37.756;2023-02-04T00:14:51;2.10;;;1.73;;
75379;SDS011;65641;44.714;37.756;2023-02-04T00:15:54;2.65;;;1.98;;
75379;SDS011;65641;44.714;37.756;2023-02-04T00:16:57;2.40;;;2.08;;
75379;SDS011;65641;44.714;37.756;2023-02-04T00:18:00;2.05;;;1.83;;
75379;SDS011;65641;44.714;37.756;2023-02-04T00:19:03;2.83;;;2.38;;
75379;SDS011;65641;44.714;37.756;2023-02-04T00:20:06;2.05;;;0.82;;
75379;SDS011;65641;44.714;37.756;2023-02-04T00:21:09;2.13;;;1.92;;
75379;SDS011;65641;44.714;37.756;2023-02-04T00:22:12;2.00;;;0.70;;
75379;SDS011;65641;44.714;37.756;2023-02-04T00:23:15;2.58;;;1.90;;
75379;SDS011;65641;44.714;37.756;2023-02-04T00:24:18;2.13;;;1.92;;
75379;SDS011;65641;44.714;37.756;2023-02-04T00:25:21;2.47;;;0.80;;
75379;SDS011;65641;44.714;37.756;2023-02-04T00:26:24;2.17;;;1.92;;
75379;SDS011;65641;44.714;37.756;2023-02-04T00:27:27;3.03;;;2.15;;
75379;SDS011;65641;44.714;37.756;2023-02-04T00:28:32;1.67;;;1.20;;
75379;SDS011;65641;44.714;37.756;2023-02-04T00:29:35;2.50;;;1.52;;
75379;SDS011;65641;44.714;37.756;2023-02-04T00:30:38;1.85;;;1.48;;
75379;SDS011;65641;44.714;37.756;2023-02-04T00:31:42;1.70;;;0.65;;
75379;SDS011;65641;44.714;37.756;2023-02-04T00:32:45;2.10;;;1.83;;
75379;SDS011;65641;44.714;37.756;2023-02-04T00:33:50;2.63;;;2.25;;
75379;SDS011;65641;44.714;37.756;2023-02-04T00:34:53;1.50;;;0.93;;
75379;SDS011;65641;44.714;37.756;2023-02-04T00:35:56;1.92;;;1.10;;
75379;SDS011;65641;44.714;37.756;2023-02-04T00:36:59;2.35;;;2.10;;
75379;SDS011;65641;44.714;37.756;2023-02-04T00:38:02;2.95;;;2.65;;
75379;SDS011;65641;44.714;37.756;2023-02-04T00:39:06;2.10;;;1.67;;
75379;SDS011;65641;44.714;37.756;2023-02-04T00:40:09;1.60;;;0.70;;
75379;SDS011;65641;44.714;37.756;2023-02-04T00:41:13;2.08;;;1.50;;
75379;SDS011;65641;44.714;37.756;2023-02-04T00:42:16;2.40;;;1.45;;
75379;SDS011;65641;44.714;37.756;2023-02-04T00:43:22;1.95;;;1.20;;
75379;SDS011;65641;44.714;37.756;2023-02-04T00:44:25;2.50;;;2.30;;
75379;SDS011;65641;44.714;37.756;2023-02-04T00:45:29;2.80;;;2.40;;
75379;SDS011;65641;44.714;37.756;2023-02-04T00:46:32;1.80;;;0.93;;
75379;SDS011;65641;44.714;37.756;2023-02-04T00:47:35;2.15;;;1.90;;
75379;SDS011;65641;44.714;37.756;2023-02-04T00:48:38;2.47;;;2.28;;
75379;SDS011;65641;44.714;37.756;2023-02-04T00:49:41;1.75;;;0.90;;
75379;SDS011;65641;44.714;37.756;2023-02-04T00:50:43;2.58;;;2.17;;
75379;SDS011;65641;44.714;37.756;2023-02-04T00:51:46;2.15;;;1.85;;
75379;SDS011;65641;44.714;37.756;2023-02-04T00:52:53;2.65;;;1.77;;
75379;SDS011;65641;44.714;37.756;2023-02-04T00:53:56;2.55;;;2.35;;
75379;SDS011;65641;44.714;37.756;2023-02-04T00:55:01;2.42;;;2.17;;
75379;SDS011;65641;44.714;37.756;2023-02-04T00:56:04;2.65;;;2.10;;
75379;SDS011;65641;44.714;37.756;2023-02-04T00:57:07;2.17;;;1.95;;
75379;SDS011;65641;44.714;37.756;2023-02-04T00:58:10;2.75;;;2.13;;
75379;SDS011;65641;44.714;37.756;2023-02-04T00:59:13;1.90;;;1.00;;
75379;SDS011;65641;44.714;37.756;2023-02-04T01:00:16;2.55;;;2.33;;
75379;SDS011;65641;44.714;37.756;2023-02-04T01:01:19;2.85;;;2.63;;
75379;SDS011;65641;44.714;37.756;2023-02-04T01:02:23;2.30;;;1.30;;
75379;SDS011;65641;44.714;37.756;2023-02-04T01:03:26;2.22;;;1.35;;
75379;SDS011;65641;44.714;37.756;2023-02-04T01:04:30;2.70;;;2.00;;
75379;SDS011;65641;44.714;37.756;2023-02-04T01:05:33;2.40;;;1.40;;
75379;SDS011;65641;44.714;37.756;2023-02-04T01:06:36;3.15;;;2.85;;
75379;SDS011;65641;44.714;37.756;2023-02-04T01:07:39;3.75;;;3.45;;
75379;SDS011;65641;44.714;37.756;2023-02-04T01:08:42;2.20;;;1.58;;
75379;SDS011;65641;44.714;37.756;2023-02-04T01:09:44;2.08;;;1.23;;
75379;SDS011;65641;44.714;37.756;2023-02-04T01:10:47;3.08;;;2.00;;
75379;SDS011;65641;44.714;37.756;2023-02-04T01:11:50;2.20;;;1.15;;
75379;SDS011;65641;44.714;37.756;2023-02-04T01:12:55;3.42;;;2.65;;
75379;SDS011;65641;44.714;37.756;2023-02-04T01:14:01;2.90;;;2.55;;
75379;SDS011;65641;44.714;37.756;2023-02-04T01:15:04;3.63;;;2.30;;
75379;SDS011;65641;44.714;37.756;2023-02-04T01:16:07;2.95;;;2.33;;
75379;SDS011;65641;44.714;37.756;2023-02-04T01:17:11;2.53;;;1.33;;
75379;SDS011;65641;44.714;37.756;2023-02-04T01:18:14;2.75;;;1.95;;
75379;SDS011;65641;44.714;37.756;2023-02-04T01:19:17;2.40;;;1.60;;
75379;SDS011;65641;44.714;37.756;2023-02-04T01:20:22;2.95;;;1.33;;
75379;SDS011;65641;44.714;37.756;2023-02-04T01:21:25;3.53;;;2.58;;
75379;SDS011;65641;44.714;37.756;2023-02-04T01:22:27;3.25;;;2.08;;
75379;SDS011;65641;44.714;37.756;2023-02-04T01:23:30;2.70;;;2.08;;
75379;SDS011;65641;44.714;37.756;2023-02-04T01:24:34;2.70;;;2.47;;
75379;SDS011;65641;44.714;37.756;2023-02-04T01:25:56;3.05;;;2.40;;
75379;SDS011;65641;44.714;37.756;2023-02-04T01:27:00;3.22;;;2.92;;
75379;SDS011;65641;44.714;37.756;2023-02-04T01:28:03;3.63;;;2.65;;
75379;SDS011;65641;44.714;37.756;2023-02-04T01:29:06;2.00;;;1.33;;
75379;SDS011;65641;44.714;37.756;2023-02-04T01:30:09;3.63;;;2.95;;
75379;SDS011;65641;44.714;37.756;2023-02-04T01:31:14;1.73;;;1.15;;
75379;SDS011;65641;44.714;37.756;2023-02-04T01:32:17;3.10;;;2.10;;
75379;SDS011;65641;44.714;37.756;2023-02-04T01:33:20;2.70;;;1.98;;
75379;SDS011;65641;44.714;37.756;2023-02-04T01:34:24;2.97;;;2.67;;
75379;SDS011;65641;44.714;37.756;2023-02-04T01:35:27;2.70;;;2.10;;
75379;SDS011;65641;44.714;37.756;2023-02-04T01:36:30;2.50;;;1.23;;
75379;SDS011;65641;44.714;37.756;2023-02-04T01:37:33;2.92;;;1.42;;
75379;SDS011;65641;44.714;37.756;2023-02-04T01:38:36;3.08;;;1.60;;
75379;SDS011;65641;44.714;37.756;2023-02-04T01:39:39;3.55;;;2.55;;
75379;SDS011;65641;44.714;37.756;2023-02-04T01:40:42;3.08;;;2.70;;
75379;SDS011;65641;44.714;37.756;2023-02-04T01:41:45;2.42;;;1.58;;
75379;SDS011;65641;44.714;37.756;2023-02-04T01:42:48;3.03;;;2.45;;
75379;SDS011;65641;44.714;37.756;2023-02-04T01:43:52;2.53;;;1.42;;
75379;SDS011;65641;44.714;37.756;2023-02-04T01:44:55;3.00;;;2.47;;
75379;SDS011;65641;44.714;37.756;2023-02-04T01:45:58;3.08;;;2.83;;
75379;SDS011;65641;44.714;37.756;2023-02-04T01:47:04;3.55;;;1.38;;
75379;SDS011;65641;44.714;37.756;2023-02-04T01:48:07;4.05;;;3.05;;
75379;SDS011;65641;44.714;37.756;2023-02-04T01:49:11;3.72;;;2.63;;
75379;SDS011;65641;44.714;37.756;2023-02-04T01:50:15;2.95;;;2.65;;
75379;SDS011;65641;44.714;37.756;2023-02-04T01:51:21;3.75;;;3.45;;
75379;SDS011;65641;44.714;37.756;2023-02-04T01:52:30;3.15;;;2.90;;
75379;SDS011;65641;44.714;37.756;2023-02-04T01:53:38;2.45;;;1.20;;
75379;SDS011;65641;44.714;37.756;2023-02-04T01:54:41;3.17;;;2.55;;
75379;SDS011;65641;44.714;37.756;2023-02-04T01:55:44;2.58;;;2.22;;
75379;SDS011;65641;44.714;37.756;2023-02-04T01:56:47;2.92;;;2.63;;
75379;SDS011;65641;44.714;37.756;2023-02-04T01:57:53;3.15;;;2.85;;
75379;SDS011;65641;44.714;37.756;2023-02-04T01:59:09;3.22;;;1.98;;
75379;SDS011;65641;44.714;37.756;2023-02-04T02:00:16;2.60;;;1.40;;
75379;SDS011;65641;44.714;37.756;2023-02-04T02:02:46;2.60;;;1.23;;
75379;SDS011;65641;44.714;37.756;2023-02-04T02:04:55;3.47;;;2.17;;
75379;SDS011;65641;44.714;37.756;2023-02-04T02:06:01;2.45;;;1.13;;
75379;SDS011;65641;44.714;37.756;2023-02-04T02:07:04;3.00;;;2.67;;
75379;SDS011;65641;44.714;37.756;2023-02-04T02:08:08;2.83;;;2.53;;
75379;SDS011;65641;44.714;37.756;2023-02-04T02:09:12;2.55;;;1.70;;
75379;SDS011;65641;44.714;37.756;2023-02-04T02:10:17;2.72;;;2.45;;
75379;SDS011;65641;44.714;37.756;2023-02-04T02:11:20;2.47;;;2.28;;
75379;SDS011;65641;44.714;37.756;2023-02-04T02:12:23;3.20;;;1.52;;
75379;SDS011;65641;44.714;37.756;2023-02-04T02:13:26;2.88;;;1.42;;
75379;SDS011;65641;44.714;37.756;2023-02-04T02:14:30;2.72;;;2.03;;
75379;SDS011;65641;44.714;37.756;2023-02-04T02:15:33;2.80;;;2.60;;
75379;SDS011;65641;44.714;37.756;2023-02-04T02:16:36;3.55;;;2.63;;
75379;SDS011;65641;44.714;37.756;2023-02-04T02:17:39;3.92;;;2.05;;
75379;SDS011;65641;44.714;37.756;2023-02-04T02:18:43;2.92;;;2.50;;
75379;SDS011;65641;44.714;37.756;2023-02-04T02:19:46;4.47;;;2.08;;
75379;SDS011;65641;44.714;37.756;2023-02-04T02:20:49;4.13;;;3.83;;
75379;SDS011;65641;44.714;37.756;2023-02-04T02:21:57;3.17;;;2.60;;
75379;SDS011;65641;44.714;37.756;2023-02-04T02:24:25;2.15;;;1.25;;
75379;SDS011;65641;44.714;37.756;2023-02-04T02:25:30;2.50;;;2.20;;
75379;SDS011;65641;44.714;37.756;2023-02-04T02:26:33;2.88;;;1.20;;
75379;SDS011;65641;44.714;37.756;2023-02-04T02:27:40;2.38;;;2.17;;
75379;SDS011;65641;44.714;37.756;2023-02-04T02:28:43;2.97;;;2.33;;
75379;SDS011;65641;44.714;37.756;2023-02-04T02:29:48;2.45;;;1.20;;
75379;SDS011;65641;44.714;37.756;2023-02-04T02:30:52;3.28;;;2.97;;
75379;SDS011;65641;44.714;37.756;2023-02-04T02:31:55;3.70;;;2.55;;
75379;SDS011;65641;44.714;37.756;2023-02-04T02:33:00;2.42;;;2.10;;
75379;SDS011;65641;44.714;37.756;2023-02-04T02:34:03;3.42;;;2.78;;
75379;SDS011;65641;44.714;37.756;2023-02-04T02:35:06;2.65;;;1.45;;
75379;SDS011;65641;44.714;37.756;2023-02-04T02:36:09;2.95;;;2.72;;
75379;SDS011;65641;44.714;37.756;2023-02-04T02:37:12;3.33;;;2.40;;
75379;SDS011;65641;44.714;37.756;2023-02-04T02:38:16;2.92;;;2.58;;
75379;SDS011;65641;44.714;37.756;2023-02-04T02:39:20;3.13;;;2.80;;
75379;SDS011;65641;44.714;37.756;2023-02-04T02:40:23;3.00;;;2.30;;
75379;SDS011;65641;44.714;37.756;2023-02-04T02:41:26;3.17;;;2.97;;
75379;SDS011;65641;44.714;37.756;2023-02-04T02:42:29;2.92;;;2.63;;
75379;SDS011;65641;44.714;37.756;2023-02-04T02:43:32;2.40;;;1.13;;
75379;SDS011;65641;44.714;37.756;2023-02-04T02:44:38;2.50;;;1.85;;
75379;SDS011;65641;44.714;37.756;2023-02-04T02:45:44;2.45;;;1.98;;
75379;SDS011;65641;44.714;37.756;2023-02-04T02:46:52;2.30;;;1.27;;
75379;SDS011;65641;44.714;37.756;2023-02-04T02:47:58;2.45;;;1.88;;
75379;SDS011;65641;44.714;37.756;2023-02-04T02:49:05;1.80;;;0.73;;
75379;SDS011;65641;44.714;37.756;2023-02-04T02:50:14;1.38;;;0.88;;
75379;SDS011;65641;44.714;37.756;2023-02-04T02:51:18;2.67;;;2.45;;
75379;SDS011;65641;44.714;37.756;2023-02-04T02:52:22;2.92;;;2.72;;
75379;SDS011;65641;44.714;37.756;2023-02-04T02:53:25;2.38;;;1.95;;
75379;SDS011;65641;44.714;37.756;2023-02-04T02:54:29;2.58;;;1.38;;
75379;SDS011;65641;44.714;37.756;2023-02-04T02:55:36;2.40;;;2.20;;
75379;SDS011;65641;44.714;37.756;2023-02-04T02:56:42;1.63;;;1.05;;
75379;SDS011;65641;44.714;37.756;2023-02-04T02:57:46;2.28;;;1.77;;
75379;SDS011;65641;44.714;37.756;2023-02-04T02:58:50;2.72;;;2.53;;
75379;SDS011;65641;44.714;37.756;2023-02-04T02:59:54;2.15;;;1.73;;
75379;SDS011;65641;44.714;37.756;2023-02-04T03:00:58;2.15;;;1.95;;
75379;SDS011;65641;44.714;37.756;2023-02-04T03:02:04;3.08;;;1.15;;
75379;SDS011;65641;44.714;37.756;2023-02-04T03:03:14;2.90;;;2.63;;
75379;SDS011;65641;44.714;37.756;2023-02-04T03:04:24;1.52;;;0.93;;
75379;SDS011;65641;44.714;37.756;2023-02-04T03:05:29;3.08;;;1.98;;
75379;SDS011;65641;44.714;37.756;2023-02-04T03:06:36;2.35;;;2.00;;
75379;SDS011;65641;44.714;37.756;2023-02-04T03:07:42;2.03;;;1.20;;
75379;SDS011;65641;44.714;37.756;2023-02-04T03:08:45;2.20;;;1.95;;
75379;SDS011;65641;44.714;37.756;2023-02-04T03:09:50;2.35;;;2.15;;
75379;SDS011;65641;44.714;37.756;2023-02-04T03:10:54;1.85;;;1.70;;
75379;SDS011;65641;44.714;37.756;2023-02-04T03:11:58;2.30;;;2.05;;
75379;SDS011;65641;44.714;37.756;2023-02-04T03:13:03;2.65;;;2.45;;
75379;SDS011;65641;44.714;37.756;2023-02-04T03:14:07;1.85;;;0.65;;
75379;SDS011;65641;44.714;37.756;2023-02-04T03:15:10;2.08;;;1.63;;
75379;SDS011;65641;44.714;37.756;2023-02-04T03:16:13;2.17;;;2.03;;
75379;SDS011;65641;44.714;37.756;2023-02-04T03:17:16;1.90;;;1.50;;
75379;SDS011;65641;44.714;37.756;2023-02-04T03:18:20;2.47;;;2.20;;
75379;SDS011;65641;44.714;37.756;2023-02-04T03:19:26;2.20;;;1.98;;
75379;SDS011;65641;44.714;37.756;2023-02-04T03:20:30;2.17;;;1.92;;
75379;SDS011;65641;44.714;37.756;2023-02-04T03:21:34;1.63;;;1.42;;
75379;SDS011;65641;44.714;37.756;2023-02-04T03:22:37;1.58;;;1.00;;
75379;SDS011;65641;44.714;37.756;2023-02-04T03:23:40;1.45;;;0.63;;
75379;SDS011;65641;44.714;37.756;2023-02-04T03:24:43;1.90;;;1.05;;
75379;SDS011;65641;44.714;37.756;2023-02-04T03:25:46;1.67;;;0.90;;
75379;SDS011;65641;44.714;37.756;2023-02-04T03:26:51;1.38;;;0.77;;
75379;SDS011;65641;44.714;37.756;2023-02-04T03:27:54;1.70;;;1.60;;
75379;SDS011;65641;44.714;37.756;2023-02-04T03:28:59;2.17;;;1.98;;
75379;SDS011;65641;44.714;37.756;2023-02-04T03:30:02;2.28;;;1.67;;
75379;SDS011;65641;44.714;37.756;2023-02-04T03:31:05;1.27;;;1.00;;
75379;SDS011;65641;44.714;37.756;2023-02-04T03:32:11;1.42;;;0.75;;
75379;SDS011;65641;44.714;37.756;2023-02-04T03:33:13;2.25;;;1.88;;
75379;SDS011;65641;44.714;37.756;2023-02-04T03:34:16;2.00;;;1.35;;
75379;SDS011;65641;44.714;37.756;2023-02-04T03:35:19;2.10;;;1.60;;
75379;SDS011;65641;44.714;37.756;2023-02-04T03:36:22;2.53;;;2.33;;
75379;SDS011;65641;44.714;37.756;2023-02-04T03:37:25;1.80;;;0.73;;
75379;SDS011;65641;44.714;37.756;2023-02-04T03:38:28;1.90;;;1.35;;
75379;SDS011;65641;44.714;37.756;2023-02-04T03:39:31;2.53;;;1.80;;
75379;SDS011;65641;44.714;37.756;2023-02-04T03:40:43;2.33;;;2.13;;
75379;SDS011;65641;44.714;37.756;2023-02-04T03:41:46;1.85;;;1.63;;
75379;SDS011;65641;44.714;37.756;2023-02-04T03:42:49;2.05;;;1.88;;
75379;SDS011;65641;44.714;37.756;2023-02-04T03:43:52;1.45;;;0.82;;
75379;SDS011;65641;44.714;37.756;2023-02-04T03:44:54;1.55;;;0.93;;
75379;SDS011;65641;44.714;37.756;2023-02-04T03:45:57;2.58;;;1.83;;
75379;SDS011;65641;44.714;37.756;2023-02-04T03:47:00;2.10;;;1.77;;
75379;SDS011;65641;44.714;37.756;2023-02-04T03:48:03;1.98;;;1.77;;
75379;SDS011;65641;44.714;37.756;2023-02-04T03:49:06;2.17;;;1.98;;
75379;SDS011;65641;44.714;37.756;2023-02-04T03:50:13;2.13;;;2.03;;
75379;SDS011;65641;44.714;37.756;2023-02-04T03:51:16;2.08;;;1.77;;
75379;SDS011;65641;44.714;37.756;2023-02-04T03:52:18;2.10;;;1.67;;
75379;SDS011;65641;44.714;37.756;2023-02-04T03:53:21;1.85;;;0.90;;
75379;SDS011;65641;44.714;37.756;2023-02-04T03:54:25;1.77;;;1.65;;
75379;SDS011;65641;44.714;37.756;2023-02-04T03:55:28;2.38;;;1.25;;
75379;SDS011;65641;44.714;37.756;2023-02-04T03:56:33;2.08;;;1.20;;
75379;SDS011;65641;44.714;37.756;2023-02-04T03:57:36;2.42;;;2.08;;
75379;SDS011;65641;44.714;37.756;2023-02-04T03:58:39;2.60;;;2.05;;
75379;SDS011;65641;44.714;37.756;2023-02-04T03:59:42;2.35;;;1.88;;
75379;SDS011;65641;44.714;37.756;2023-02-04T04:00:44;1.67;;;0.75;;
75379;SDS011;65641;44.714;37.756;2023-02-04T04:01:47;2.22;;;1.73;;
75379;SDS011;65641;44.714;37.756;2023-02-04T04:03:06;2.13;;;1.92;;
75379;SDS011;65641;44.714;37.756;2023-02-04T04:04:09;2.80;;;2.60;;
75379;SDS011;65641;44.714;37.756;2023-02-04T04:05:11;2.33;;;1.10;;
75379;SDS011;65641;44.714;37.756;2023-02-04T04:06:14;2.85;;;2.55;;
75379;SDS011;65641;44.714;37.756;2023-02-04T04:07:18;1.70;;;1.45;;
75379;SDS011;65641;44.714;37.756;2023-02-04T04:08:21;2.55;;;1.77;;
75379;SDS011;65641;44.714;37.756;2023-02-04T04:09:24;2.25;;;2.05;;
75379;SDS011;65641;44.714;37.756;2023-02-04T04:10:27;2.28;;;2.08;;
75379;SDS011;65641;44.714;37.756;2023-02-04T04:11:33;2.60;;;1.85;;
75379;SDS011;65641;44.714;37.756;2023-02-04T04:12:36;1.48;;;0.85;;
75379;SDS011;65641;44.714;37.756;2023-02-04T04:13:39;1.52;;;0.50;;
75379;SDS011;65641;44.714;37.756;2023-02-04T04:14:42;1.50;;;1.38;;
75379;SDS011;65641;44.714;37.756;2023-02-04T04:15:44;1.45;;;0.60;;
75379;SDS011;65641;44.714;37.756;2023-02-04T04:16:47;1.55;;;0.52;;
75379;SDS011;65641;44.714;37.756;2023-02-04T04:17:50;1.27;;;0.60;;
75379;SDS011;65641;44.714;37.756;2023-02-04T04:18:54;1.65;;;0.57;;
75379;SDS011;65641;44.714;37.756;2023-02-04T04:19:57;2.40;;;2.20;;
75379;SDS011;65641;44.714;37.756;2023-02-04T04:21:00;2.47;;;2.28;;
75379;SDS011;65641;44.714;37.756;2023-02-04T04:22:03;2.05;;;1.75;;
75379;SDS011;65641;44.714;37.756;2023-02-04T04:23:06;1.83;;;0.80;;
75379;SDS011;65641;44.714;37.756;2023-02-04T04:24:09;1.58;;;1.48;;
75379;SDS011;65641;44.714;37.756;2023-02-04T04:25:12;2.13;;;1.85;;
75379;SDS011;65641;44.714;37.756;2023-02-04T04:26:15;2.30;;;1.70;;
75379;SDS011;65641;44.714;37.756;2023-02-04T04:27:18;2.25;;;1.85;;
75379;SDS011;65641;44.714;37.756;2023-02-04T04:28:21;1.83;;;1.48;;
75379;SDS011;65641;44.714;37.756;2023-02-04T04:29:24;1.63;;;1.52;;
75379;SDS011;65641;44.714;37.756;2023-02-04T04:30:29;1.83;;;1.55;;
75379;SDS011;65641;44.714;37.756;2023-02-04T04:31:33;3.22;;;1.85;;
75379;SDS011;65641;44.714;37.756;2023-02-04T04:32:36;1.77;;;1.67;;
75379;SDS011;65641;44.714;37.756;2023-02-04T04:33:39;1.70;;;0.50;;
75379;SDS011;65641;44.714;37.756;2023-02-04T04:34:42;1.33;;;0.70;;
75379;SDS011;65641;44.714;37.756;2023-02-04T04:35:44;2.45;;;1.50;;
75379;SDS011;65641;44.714;37.756;2023-02-04T04:36:47;2.33;;;1.63;;
75379;SDS011;65641;44.714;37.756;2023-02-04T04:37:50;1.70;;;1.60;;
75379;SDS011;65641;44.714;37.756;2023-02-04T04:38:53;2.33;;;1.90;;
75379;SDS011;65641;44.714;37.756;2023-02-04T04:39:56;2.10;;;1.38;;
75379;SDS011;65641;44.714;37.756;2023-02-04T04:40:59;1.65;;;1.55;;
75379;SDS011;65641;44.714;37.756;2023-02-04T04:42:02;2.10;;;1.90;;
75379;SDS011;65641;44.714;37.756;2023-02-04T04:43:05;2.85;;;0.60;;
75379;SDS011;65641;44.714;37.756;2023-02-04T04:44:15;2.10;;;1.88;;
75379;SDS011;65641;44.714;37.756;2023-02-04T04:45:18;1.65;;;0.85;;
75379;SDS011;65641;44.714;37.756;2023-02-04T04:46:21;1.95;;;1.85;;
75379;SDS011;65641;44.714;37.756;2023-02-04T04:47:24;1.70;;;1.60;;
75379;SDS011;65641;44.714;37.756;2023-02-04T04:48:27;1.73;;;0.52;;
75379;SDS011;65641;44.714;37.756;2023-02-04T04:49:30;2.63;;;0.70;;
75379;SDS011;65641;44.714;37.756;2023-02-04T04:50:33;1.83;;;1.65;;
75379;SDS011;65641;44.714;37.756;2023-02-04T04:51:36;2.13;;;1.92;;
75379;SDS011;65641;44.714;37.756;2023-02-04T04:52:39;1.60;;;0.90;;
75379;SDS011;65641;44.714;37.756;2023-02-04T04:53:45;1.60;;;1.35;;
75379;SDS011;65641;44.714;37.756;2023-02-04T04:54:48;1.63;;;0.70;;
75379;SDS011;65641;44.714;37.756;2023-02-04T04:55:51;1.60;;;1.48;;
75379;SDS011;65641;44.714;37.756;2023-02-04T04:57:02;2.15;;;1.95;;
75379;SDS011;65641;44.714;37.756;2023-02-04T04:58:08;2.13;;;1.92;;
75379;SDS011;65641;44.714;37.756;2023-02-04T04:59:11;2.30;;;0.90;;
75379;SDS011;65641;44.714;37.756;2023-02-04T05:00:15;1.50;;;0.75;;
75379;SDS011;65641;44.714;37.756;2023-02-04T05:01:19;1.83;;;1.67;;
75379;SDS011;65641;44.714;37.756;2023-02-04T05:02:24;2.20;;;2.00;;
75379;SDS011;65641;44.714;37.756;2023-02-04T05:03:26;1.48;;;0.80;;
75379;SDS011;65641;44.714;37.756;2023-02-04T05:04:29;1.95;;;1.77;;
75379;SDS011;65641;44.714;37.756;2023-02-04T05:05:32;1.60;;;0.80;;
75379;SDS011;65641;44.714;37.756;2023-02-04T05:06:41;2.67;;;2.47;;
75379;SDS011;65641;44.714;37.756;2023-02-04T05:07:43;1.95;;;1.02;;
75379;SDS011;65641;44.714;37.756;2023-02-04T05:08:46;1.80;;;1.55;;
75379;SDS011;65641;44.714;37.756;2023-02-04T05:09:51;3.10;;;0.98;;
75379;SDS011;65641;44.714;37.756;2023-02-04T05:10:54;3.47;;;2.50;;
75379;SDS011;65641;44.714;37.756;2023-02-04T05:11:57;4.18;;;3.08;;
75379;SDS011;65641;44.714;37.756;2023-02-04T05:13:00;2.70;;;2.25;;
75379;SDS011;65641;44.714;37.756;2023-02-04T05:14:03;2.78;;;1.60;;
75379;SDS011;65641;44.714;37.756;2023-02-04T05:15:07;2.13;;;0.85;;
75379;SDS011;65641;44.714;37.756;2023-02-04T05:16:10;3.25;;;2.95;;
75379;SDS011;65641;44.714;37.756;2023-02-04T05:17:13;4.82;;;3.22;;
75379;SDS011;65641;44.714;37.756;2023-02-04T05:18:16;3.33;;;3.03;;
75379;SDS011;65641;44.714;37.756;2023-02-04T05:19:19;3.55;;;2.60;;
75379;SDS011;65641;44.714;37.756;2023-02-04T05:20:22;2.15;;;1.13;;
75379;SDS011;65641;44.714;37.756;2023-02-04T05:21:25;2.47;;;2.25;;
75379;SDS011;65641;44.714;37.756;2023-02-04T05:22:28;3.67;;;3.00;;
75379;SDS011;65641;44.714;37.756;2023-02-04T05:23:32;3.85;;;3.25;;
75379;SDS011;65641;44.714;37.756;2023-02-04T05:24:35;3.22;;;2.28;;
75379;SDS011;65641;44.714;37.756;2023-02-04T05:25:38;3.55;;;2.83;;
75379;SDS011;65641;44.714;37.756;2023-02-04T05:26:42;3.35;;;2.78;;
75379;SDS011;65641;44.714;37.756;2023-02-04T05:27:45;3.38;;;2.97;;
75379;SDS011;65641;44.714;37.756;2023-02-04T05:28:48;2.97;;;2.38;;
75379;SDS011;65641;44.714;37.756;2023-02-04T05:29:50;4.10;;;3.13;;
75379;SDS011;65641;44.714;37.756;2023-02-04T05:30:53;3.50;;;2.60;;
75379;SDS011;65641;44.714;37.756;2023-02-04T05:31:56;3.63;;;3.00;;
75379;SDS011;65641;44.714;37.756;2023-02-04T05:33:06;3.10;;;1.50;;
75379;SDS011;65641;44.714;37.756;2023-02-04T05:34:08;5.03;;;2.92;;
75379;SDS011;65641;44.714;37.756;2023-02-04T05:35:11;4.78;;;1.80;;
75379;SDS011;65641;44.714;37.756;2023-02-04T05:36:14;3.63;;;2.88;;
75379;SDS011;65641;44.714;37.756;2023-02-04T05:37:19;3.28;;;1.70;;
75379;SDS011;65641;44.714;37.756;2023-02-04T05:38:22;4.32;;;3.15;;
75379;SDS011;65641;44.714;37.756;2023-02-04T05:39:26;4.18;;;1.92;;
75379;SDS011;65641;44.714;37.756;2023-02-04T05:40:29;4.30;;;3.08;;
75379;SDS011;65641;44.714;37.756;2023-02-04T05:41:40;5.07;;;3.25;;
75379;SDS011;65641;44.714;37.756;2023-02-04T05:42:43;3.60;;;3.15;;
75379;SDS011;65641;44.714;37.756;2023-02-04T05:43:46;4.47;;;3.28;;
75379;SDS011;65641;44.714;37.756;2023-02-04T05:44:49;4.50;;;2.47;;
75379;SDS011;65641;44.714;37.756;2023-02-04T05:45:51;4.22;;;3.13;;
75379;SDS011;65641;44.714;37.756;2023-02-04T05:46:54;5.03;;;2.40;;
75379;SDS011;65641;44.714;37.756;2023-02-04T05:47:57;5.90;;;3.92;;
75379;SDS011;65641;44.714;37.756;2023-02-04T05:49:00;4.00;;;3.35;;
75379;SDS011;65641;44.714;37.756;2023-02-04T05:50:05;5.28;;;3.75;;
75379;SDS011;65641;44.714;37.756;2023-02-04T05:51:16;5.00;;;3.85;;
75379;SDS011;65641;44.714;37.756;2023-02-04T05:52:19;3.70;;;2.25;;
75379;SDS011;65641;44.714;37.756;2023-02-04T05:53:22;3.90;;;2.38;;
75379;SDS011;65641;44.714;37.756;2023-02-04T05:54:27;5.15;;;3.72;;
75379;SDS011;65641;44.714;37.756;2023-02-04T05:55:30;5.47;;;3.80;;
75379;SDS011;65641;44.714;37.756;2023-02-04T05:56:33;4.75;;;2.38;;
75379;SDS011;65641;44.714;37.756;2023-02-04T05:57:36;4.57;;;3.72;;
75379;SDS011;65641;44.714;37.756;2023-02-04T05:58:42;5.35;;;3.70;;
75379;SDS011;65641;44.714;37.756;2023-02-04T05:59:45;4.43;;;2.88;;
75379;SDS011;65641;44.714;37.756;2023-02-04T06:00:47;5.18;;;4.38;;
75379;SDS011;65641;44.714;37.756;2023-02-04T06:01:50;4.15;;;2.28;;
75379;SDS011;65641;44.714;37.756;2023-02-04T06:02:53;6.40;;;4.93;;
75379;SDS011;65641;44.714;37.756;2023-02-04T06:03:56;2.92;;;2.33;;
75379;SDS011;65641;44.714;37.756;2023-02-04T06:04:59;5.55;;;4.25;;
75379;SDS011;65641;44.714;37.756;2023-02-04T06:06:02;3.78;;;2.30;;
75379;SDS011;65641;44.714;37.756;2023-02-04T06:07:08;3.70;;;2.70;;
75379;SDS011;65641;44.714;37.756;2023-02-04T06:08:11;6.43;;;4.18;;
75379;SDS011;65641;44.714;37.756;2023-02-04T06:09:16;4.70;;;3.53;;
75379;SDS011;65641;44.714;37.756;2023-02-04T06:10:19;5.28;;;4.78;;
75379;SDS011;65641;44.714;37.756;2023-02-04T06:11:22;4.80;;;2.67;;
75379;SDS011;65641;44.714;37.756;2023-02-04T06:12:25;4.75;;;3.80;;
75379;SDS011;65641;44.714;37.756;2023-02-04T06:13:30;3.53;;;2.40;;
75379;SDS011;65641;44.714;37.756;2023-02-04T06:14:33;5.63;;;3.88;;
75379;SDS011;65641;44.714;37.756;2023-02-04T06:15:36;5.43;;;2.92;;
75379;SDS011;65641;44.714;37.756;2023-02-04T06:16:39;4.65;;;2.42;;
75379;SDS011;65641;44.714;37.756;2023-02-04T06:17:42;6.30;;;4.10;;
75379;SDS011;65641;44.714;37.756;2023-02-04T06:18:45;4.00;;;2.30;;
75379;SDS011;65641;44.714;37.756;2023-02-04T06:19:48;4.80;;;3.83;;
75379;SDS011;65641;44.714;37.756;2023-02-04T06:20:50;4.68;;;4.07;;
75379;SDS011;65641;44.714;37.756;2023-02-04T06:21:56;5.45;;;2.55;;